createdAt,value
2017-10-16T00:00:43.593Z,80.47
2017-10-16T00:01:54.066Z,80.56
2017-10-16T00:03:04.558Z,80.47
2017-10-16T00:04:15.055Z,80.47
2017-10-16T00:05:25.581Z,80.47
2017-10-16T00:06:36.070Z,80.56
2017-10-16T00:07:46.538Z,80.56
2017-10-16T00:08:56.698Z,80.56
2017-10-16T00:10:07.231Z,80.37
2017-10-16T00:11:17.713Z,80.56
2017-10-16T00:12:28.177Z,80.66
2017-10-16T00:13:38.683Z,80.76
2017-10-16T00:14:49.218Z,80.56
2017-10-16T00:15:59.720Z,80.85
2017-10-16T00:17:10.187Z,80.76
2017-10-16T00:18:20.376Z,80.85
2017-10-16T00:19:30.860Z,80.18
2017-10-16T00:20:41.345Z,80.56
2017-10-16T00:21:51.921Z,80.37
2017-10-16T00:23:02.418Z,80.33
2017-10-16T00:24:12.478Z,80.52
2017-10-16T00:25:22.983Z,80.33
2017-10-16T00:26:33.758Z,80.81
2017-10-16T00:27:44.257Z,81
2017-10-16T00:28:54.422Z,80.62
2017-10-16T00:30:04.916Z,80.62
2017-10-16T00:31:15.473Z,81.1
2017-10-16T00:32:25.696Z,81.1
2017-10-16T00:33:36.168Z,81.1
2017-10-16T00:34:46.667Z,81.1
2017-10-16T00:35:57.205Z,81.29
2017-10-16T00:37:08.661Z,81.67
2017-10-16T00:38:19.149Z,81
2017-10-16T00:39:29.756Z,81.2
2017-10-16T00:40:40.261Z,81.57
2017-10-16T00:41:50.745Z,81.2
2017-10-16T00:43:01.345Z,81
2017-10-16T00:44:11.857Z,81.77
2017-10-16T00:45:22.359Z,81.96
2017-10-16T00:46:32.896Z,81.57
2017-10-16T00:47:42.357Z,81.86
2017-10-16T00:48:52.530Z,81.67
2017-10-16T00:50:03.170Z,81.2
2017-10-16T00:51:13.233Z,81.2
2017-10-16T00:52:23.712Z,81.77
2017-10-16T00:53:34.271Z,81.2
2017-10-16T00:54:44.747Z,81.57
2017-10-16T00:55:55.294Z,81.67
2017-10-16T00:57:05.802Z,80.9
2017-10-16T00:58:16.286Z,81.48
2017-10-16T00:59:26.839Z,80.81
2017-10-16T01:00:37.324Z,81.2
2017-10-16T01:01:47.817Z,81.25
2017-10-16T01:02:58.296Z,81.57
2017-10-16T01:04:08.794Z,81.63
2017-10-16T01:05:18.972Z,81.63
2017-10-16T01:06:29.440Z,81.63
2017-10-16T01:07:39.605Z,81.54
2017-10-16T01:08:50.139Z,81.44
2017-10-16T01:10:00.608Z,81.34
2017-10-16T01:11:11.097Z,81.73
2017-10-16T01:12:21.580Z,81.63
2017-10-16T01:13:32.077Z,81.73
2017-10-16T01:14:42.548Z,82.01
2017-10-16T01:15:53.021Z,81.82
2017-10-16T01:17:03.565Z,81.82
2017-10-16T01:18:14.103Z,81.63
2017-10-16T01:19:24.614Z,81.73
2017-10-16T01:20:35.149Z,81.82
2017-10-16T01:21:45.684Z,81.44
2017-10-16T01:22:56.193Z,81.92
2017-10-16T01:24:06.691Z,82.2
2017-10-16T01:25:17.168Z,82.3
2017-10-16T01:26:27.691Z,82.01
2017-10-16T01:27:38.163Z,82.11
2017-10-16T01:28:48.701Z,82.2
2017-10-16T01:29:59.418Z,82.2
2017-10-16T01:31:09.895Z,82.3
2017-10-16T01:32:20.376Z,82.11
2017-10-16T01:33:30.637Z,82.68
2017-10-16T01:34:40.847Z,82.78
2017-10-16T01:35:51.384Z,82.68
2017-10-16T01:37:01.872Z,82.3
2017-10-16T01:38:12.026Z,82.2
2017-10-16T01:39:22.515Z,82.3
2017-10-16T01:40:32.988Z,82.11
2017-10-16T01:41:43.476Z,82.11
2017-10-16T01:42:53.644Z,82.2
2017-10-16T01:44:03.810Z,82.3
2017-10-16T01:45:14.302Z,82.01
2017-10-16T01:46:24.813Z,82.11
2017-10-16T01:47:35.338Z,82.01
2017-10-16T01:48:45.822Z,82.3
2017-10-16T01:49:56.310Z,82.2
2017-10-16T01:51:06.826Z,82.2
2017-10-16T01:52:17.426Z,82.3
2017-10-16T01:53:27.815Z,82.11
2017-10-16T01:54:38.287Z,82.01
2017-10-16T01:55:48.801Z,82.01
2017-10-16T01:56:59.309Z,82.2
2017-10-16T01:58:09.804Z,82.01
2017-10-16T01:59:20.273Z,82.11
2017-10-16T02:00:30.468Z,82.11
2017-10-16T02:01:40.980Z,82.01
2017-10-16T02:02:51.491Z,81.82
2017-10-16T02:04:02.006Z,82.2
2017-10-16T02:05:12.479Z,81.82
2017-10-16T02:06:22.950Z,82.11
2017-10-16T02:07:33.432Z,82.2
2017-10-16T02:08:44.034Z,83.06
2017-10-16T02:09:54.522Z,82.4
2017-10-16T02:11:04.727Z,82.3
2017-10-16T02:12:15.332Z,82.2
2017-10-16T02:13:25.851Z,82.68
2017-10-16T02:14:36.318Z,82.64
2017-10-16T02:15:46.804Z,83.06
2017-10-16T02:16:57.312Z,82.54
2017-10-16T02:18:07.791Z,82.54
2017-10-16T02:19:18.279Z,83.31
2017-10-16T02:20:28.756Z,82.83
2017-10-16T02:21:39.215Z,82.54
2017-10-16T02:22:49.737Z,82.74
2017-10-16T02:23:59.881Z,82.74
2017-10-16T02:25:10.356Z,82.74
2017-10-16T02:26:20.818Z,82.74
2017-10-16T02:27:31.289Z,83.22
2017-10-16T02:28:41.853Z,82.83
2017-10-16T02:29:52.327Z,83.31
2017-10-16T02:31:02.818Z,82.93
2017-10-16T02:32:13.305Z,82.93
2017-10-16T02:33:23.780Z,83.03
2017-10-16T02:34:34.068Z,83.12
2017-10-16T02:35:44.538Z,82.93
2017-10-16T02:36:55.024Z,83.12
2017-10-16T02:38:05.546Z,83.03
2017-10-16T02:39:16.080Z,82.93
2017-10-16T02:40:26.251Z,82.83
2017-10-16T02:41:36.131Z,83.03
2017-10-16T02:42:46.291Z,82.93
2017-10-16T02:43:56.783Z,83.12
2017-10-16T02:45:07.295Z,82.74
2017-10-16T02:46:17.808Z,83.12
2017-10-16T02:47:28.938Z,82.83
2017-10-16T02:48:39.111Z,83.12
2017-10-16T02:49:49.593Z,82.83
2017-10-16T02:50:59.756Z,82.83
2017-10-16T02:52:10.238Z,82.93
2017-10-16T02:53:20.704Z,82.93
2017-10-16T02:54:30.861Z,83.12
2017-10-16T02:55:41.348Z,82.74
2017-10-16T02:56:51.513Z,83.12
2017-10-16T02:58:02.003Z,83.03
2017-10-16T02:59:12.486Z,83.12
2017-10-16T03:00:22.964Z,83.31
2017-10-16T03:01:33.452Z,83.03
2017-10-16T03:02:43.596Z,83.12
2017-10-16T03:03:54.298Z,82.93
2017-10-16T03:05:04.802Z,82.93
2017-10-16T03:06:14.950Z,82.93
2017-10-16T03:07:25.118Z,82.93
2017-10-16T03:08:35.708Z,82.83
2017-10-16T03:09:46.618Z,82.93
2017-10-16T03:10:57.128Z,82.74
2017-10-16T03:12:07.604Z,83.03
2017-10-16T03:13:18.077Z,83.69
2017-10-16T03:14:28.555Z,83.69
2017-10-16T03:15:39.035Z,83.69
2017-10-16T03:16:49.510Z,83.31
2017-10-16T03:18:00.978Z,82.79
2017-10-16T03:19:11.153Z,82.89
2017-10-16T03:20:21.663Z,82.79
2017-10-16T03:21:32.159Z,82.7
2017-10-16T03:22:42.654Z,83.37
2017-10-16T03:23:53.141Z,83.56
2017-10-16T03:25:03.238Z,83.65
2017-10-16T03:26:13.750Z,83.46
2017-10-16T03:27:24.224Z,83.46
2017-10-16T03:28:34.865Z,83.84
2017-10-16T03:29:45.026Z,83.56
2017-10-16T03:30:55.514Z,83.56
2017-10-16T03:32:06.010Z,83.75
2017-10-16T03:33:16.626Z,83.75
2017-10-16T03:34:27.153Z,83.46
2017-10-16T03:35:37.710Z,83.56
2017-10-16T03:36:48.281Z,83.65
2017-10-16T03:37:58.466Z,83.65
2017-10-16T03:39:08.933Z,83.37
2017-10-16T03:40:19.459Z,83.56
2017-10-16T03:41:30.073Z,83.65
2017-10-16T03:42:40.574Z,83.94
2017-10-16T03:43:51.063Z,83.27
2017-10-16T03:45:01.535Z,83.56
2017-10-16T03:46:12.025Z,83.65
2017-10-16T03:47:22.506Z,83.56
2017-10-16T03:48:32.693Z,83.46
2017-10-16T03:49:43.198Z,83.27
2017-10-16T03:50:53.671Z,83.37
2017-10-16T03:52:04.149Z,83.37
2017-10-16T03:53:14.650Z,83.37
2017-10-16T03:54:24.792Z,83.69
2017-10-16T03:55:35.292Z,83.56
2017-10-16T03:56:45.771Z,83.65
2017-10-16T03:57:56.324Z,83.46
2017-10-16T03:59:06.798Z,83.56
2017-10-16T04:00:17.275Z,83.27
2017-10-16T04:01:27.911Z,83.56
2017-10-16T04:02:38.400Z,83.84
2017-10-16T04:03:49.230Z,83.65
2017-10-16T04:04:59.776Z,83.75
2017-10-16T04:06:10.274Z,83.75
2017-10-16T04:07:21.353Z,83.65
2017-10-16T04:08:31.821Z,83.75
2017-10-16T04:09:42.376Z,83.65
2017-10-16T04:10:52.851Z,83.65
2017-10-16T04:12:03.388Z,83.75
2017-10-16T04:13:13.876Z,83.56
2017-10-16T04:14:24.384Z,83.75
2017-10-16T04:15:34.892Z,83.75
2017-10-16T04:16:45.575Z,83.84
2017-10-16T04:17:56.273Z,83.75
2017-10-16T04:19:06.755Z,83.75
2017-10-16T04:20:17.263Z,83.84
2017-10-16T04:21:27.769Z,83.84
2017-10-16T04:22:38.250Z,83.75
2017-10-16T04:23:48.837Z,84.32
2017-10-16T04:24:59.141Z,84.23
2017-10-16T04:26:09.641Z,83.94
2017-10-16T04:27:19.765Z,84.03
2017-10-16T04:28:30.358Z,84.32
2017-10-16T04:29:40.981Z,83.9
2017-10-16T04:30:51.457Z,83.94
2017-10-16T04:32:01.990Z,84.23
2017-10-16T04:33:12.128Z,83.99
2017-10-16T04:34:22.649Z,83.84
2017-10-16T04:35:33.137Z,84.38
2017-10-16T04:36:43.626Z,84.38
2017-10-16T04:37:54.140Z,84.19
2017-10-16T04:39:04.725Z,84.61
2017-10-16T04:40:15.199Z,84.42
2017-10-16T04:41:25.711Z,84.61
2017-10-16T04:42:36.356Z,83.94
2017-10-16T04:43:46.536Z,84.61
2017-10-16T04:44:57.006Z,83.9
2017-10-16T04:46:07.507Z,84.38
2017-10-16T04:47:18.005Z,84.03
2017-10-16T04:48:28.550Z,84.47
2017-10-16T04:49:39.036Z,83.8
2017-10-16T04:50:49.524Z,84.56
2017-10-16T04:52:00.026Z,84.19
2017-10-16T04:53:10.494Z,84.66
2017-10-16T04:54:21.001Z,84.38
2017-10-16T04:55:31.509Z,84.85
2017-10-16T04:56:42.043Z,84.76
2017-10-16T04:57:52.571Z,84.28
2017-10-16T04:59:03.068Z,84.47
2017-10-16T05:00:13.628Z,84.38
2017-10-16T05:01:24.168Z,84.47
2017-10-16T05:02:34.662Z,84.28
2017-10-16T05:03:45.155Z,84.66
2017-10-16T05:04:55.322Z,83.99
2017-10-16T05:06:06.781Z,85.05
2017-10-16T05:07:17.379Z,83.99
2017-10-16T05:08:27.853Z,84.38
2017-10-16T05:09:38.372Z,84.47
2017-10-16T05:10:48.843Z,84.28
2017-10-16T05:11:59.057Z,84.56
2017-10-16T05:13:09.566Z,85.05
2017-10-16T05:14:19.748Z,85.05
2017-10-16T05:15:30.363Z,84.95
2017-10-16T05:16:40.849Z,84.95
2017-10-16T05:17:51.005Z,85.05
2017-10-16T05:19:01.502Z,85.05
2017-10-16T05:20:11.968Z,84.95
2017-10-16T05:21:22.118Z,84.76
2017-10-16T05:22:32.693Z,85.05
2017-10-16T05:23:43.191Z,84.85
2017-10-16T05:24:53.736Z,85.14
2017-10-16T05:26:04.240Z,84.85
2017-10-16T05:27:14.730Z,84.76
2017-10-16T05:28:25.289Z,84.76
2017-10-16T05:29:35.794Z,85.42
2017-10-16T05:30:46.265Z,85.05
2017-10-16T05:31:56.777Z,85.14
2017-10-16T05:33:07.278Z,85.33
2017-10-16T05:34:17.844Z,85.05
2017-10-16T05:35:28.341Z,85.14
2017-10-16T05:36:38.503Z,85.05
2017-10-16T05:37:48.662Z,84.95
2017-10-16T05:38:59.144Z,85.42
2017-10-16T05:40:09.662Z,85.05
2017-10-16T05:41:19.852Z,85.81
2017-10-16T05:42:30.361Z,85.52
2017-10-16T05:43:40.851Z,85.62
2017-10-16T05:44:50.997Z,85.71
2017-10-16T05:46:01.186Z,85.52
2017-10-16T05:47:11.747Z,85.62
2017-10-16T05:48:22.347Z,85.81
2017-10-16T05:49:32.839Z,85.62
2017-10-16T05:50:43.405Z,85.42
2017-10-16T05:51:53.872Z,85.42
2017-10-16T05:53:04.410Z,85.33
2017-10-16T05:54:14.555Z,85.52
2017-10-16T05:55:25.018Z,85.33
2017-10-16T05:56:35.520Z,85.62
2017-10-16T05:57:46.016Z,85.9
2017-10-16T05:58:56.516Z,85.62
2017-10-16T06:00:06.575Z,85.71
2017-10-16T06:01:16.644Z,85.62
2017-10-16T06:02:26.718Z,86
2017-10-16T06:03:38.580Z,85.9
2017-10-16T06:04:48.660Z,85.52
2017-10-16T06:05:58.722Z,85.81
2017-10-16T06:07:08.792Z,85.42
2017-10-16T06:08:18.858Z,85.9
2017-10-16T06:09:29.415Z,85.81
2017-10-16T06:10:40.862Z,85.85
2017-10-16T06:11:50.968Z,86.04
2017-10-16T06:13:02.468Z,85.38
2017-10-16T06:14:12.519Z,85.85
2017-10-16T06:15:24.012Z,85.57
2017-10-16T06:16:34.545Z,84.89
2017-10-16T06:17:45.735Z,84.99
2017-10-16T06:18:55.896Z,85.09
2017-10-16T06:20:07.389Z,85.09
2017-10-16T06:21:17.551Z,85.18
2017-10-16T06:22:27.738Z,85.09
2017-10-16T06:23:37.455Z,85.57
2017-10-16T06:24:47.648Z,84.8
2017-10-16T06:25:57.694Z,84.8
2017-10-16T06:27:07.422Z,84.8
2017-10-16T06:28:17.495Z,84.99
2017-10-16T06:29:27.997Z,84.99
2017-10-16T06:30:37.433Z,85.18
2017-10-16T06:31:47.944Z,84.8
2017-10-16T06:32:56.689Z,84.8
2017-10-16T06:34:05.894Z,84.84
2017-10-16T06:35:17.790Z,84.7
2017-10-16T06:36:26.972Z,85.13
2017-10-16T06:37:35.715Z,84.27
2017-10-16T06:38:44.529Z,84.65
2017-10-16T06:39:53.610Z,84.36
2017-10-16T06:41:02.969Z,84.65
2017-10-16T06:42:13.855Z,84.46
2017-10-16T06:43:24.364Z,84.84
2017-10-16T06:44:33.116Z,84.17
2017-10-16T06:45:42.300Z,83.89
2017-10-16T06:46:51.102Z,84.17
2017-10-16T06:47:59.874Z,84.08
2017-10-16T06:49:09.032Z,84.17
2017-10-16T06:50:19.868Z,84.27
2017-10-16T06:51:30.048Z,83.79
2017-10-16T06:52:41.297Z,84.17
2017-10-16T06:53:51.160Z,84.31
2017-10-16T06:55:01.335Z,83.93
2017-10-16T06:56:10.105Z,83.64
2017-10-16T06:57:20.598Z,83.36
2017-10-16T06:58:31.130Z,83.45
2017-10-16T06:59:41.078Z,83.64
2017-10-16T07:00:51.129Z,83.2
2017-10-16T07:02:00.231Z,82.53
2017-10-16T07:03:09.756Z,82.82
2017-10-16T07:04:21.904Z,81.71
2017-10-16T07:05:30.828Z,80.51
2017-10-16T07:06:41.013Z,80.11
2017-10-16T07:07:49.760Z,78.45
2017-10-16T07:09:00.303Z,77.29
2017-10-16T07:10:12.119Z,75.24
2017-10-16T07:11:21.908Z,73.74
2017-10-16T07:12:30.668Z,73.05
2017-10-16T07:13:39.962Z,71.15
2017-10-16T07:14:49.460Z,69.2
2017-10-16T07:15:59.517Z,68.07
2017-10-16T07:17:08.593Z,66.66
2017-10-16T07:18:17.686Z,65.63
2017-10-16T07:19:26.781Z,63.63
2017-10-16T07:20:37.286Z,62.69
2017-10-16T07:21:47.337Z,61.27
2017-10-16T07:22:56.439Z,60.91
2017-10-16T07:24:07.295Z,59.75
2017-10-16T07:25:19.593Z,59
2017-10-16T07:26:29.123Z,58.36
2017-10-16T07:27:38.214Z,57.19
2017-10-16T07:28:48.729Z,56.25
2017-10-16T07:29:57.880Z,55.08
2017-10-16T07:31:07.284Z,54.6
2017-10-16T07:32:17.766Z,53.44
2017-10-16T07:33:26.512Z,53.27
2017-10-16T07:34:37.019Z,53.05
2017-10-16T07:35:47.556Z,51.89
2017-10-16T07:36:57.720Z,52.2
2017-10-16T07:38:06.798Z,51.72
2017-10-16T07:39:15.917Z,51.43
2017-10-16T07:40:25.111Z,50.96
2017-10-16T07:41:33.859Z,50.48
2017-10-16T07:42:42.996Z,49.73
2017-10-16T07:43:51.763Z,49.73
2017-10-16T07:45:00.851Z,49.05
2017-10-16T07:46:10.066Z,48.95
2017-10-16T07:47:21.527Z,47.61
2017-10-16T07:48:31.730Z,47.23
2017-10-16T07:49:42.218Z,47.93
2017-10-16T07:50:52.738Z,46.37
2017-10-16T07:52:01.934Z,45.89
2017-10-16T07:53:11.099Z,44.84
2017-10-16T07:54:19.855Z,44.84
2017-10-16T07:55:29.274Z,44.76
2017-10-16T07:56:38.034Z,44.57
2017-10-16T07:57:48.534Z,43.81
2017-10-16T07:58:57.644Z,43.93
2017-10-16T08:00:08.244Z,43.54
2017-10-16T08:01:17.353Z,43.35
2017-10-16T08:02:26.882Z,42.28
2017-10-16T08:03:35.661Z,41.89
2017-10-16T08:04:45.192Z,41.99
2017-10-16T08:05:55.262Z,41.5
2017-10-16T08:07:05.437Z,42
2017-10-16T08:08:15.940Z,41.42
2017-10-16T08:09:24.730Z,40.47
2017-10-16T08:10:35.723Z,40.08
2017-10-16T08:11:45.660Z,39.69
2017-10-16T08:12:55.213Z,39.78
2017-10-16T08:14:04.510Z,39.78
2017-10-16T08:15:13.607Z,39.22
2017-10-16T08:16:22.830Z,38.82
2017-10-16T08:17:33.655Z,38.84
2017-10-16T08:18:42.413Z,37.79
2017-10-16T08:19:52.928Z,37.22
2017-10-16T08:21:03.434Z,36.83
2017-10-16T08:22:13.621Z,36.24
2017-10-16T08:23:24.350Z,36.65
2017-10-16T08:24:33.118Z,35.69
2017-10-16T08:25:43.631Z,35.5
2017-10-16T08:26:52.388Z,34.93
2017-10-16T08:28:04.085Z,34.93
2017-10-16T08:29:13.537Z,34.36
2017-10-16T08:30:25.018Z,34.16
2017-10-16T08:31:35.220Z,33.38
2017-10-16T08:32:45.718Z,33.77
2017-10-16T08:33:55.796Z,33.58
2017-10-16T08:35:04.909Z,33.48
2017-10-16T08:36:14.023Z,33.48
2017-10-16T08:37:22.824Z,33.87
2017-10-16T08:38:31.938Z,33.5
2017-10-16T08:39:41.074Z,32.81
2017-10-16T08:40:50.525Z,33.22
2017-10-16T08:42:00.393Z,33.22
2017-10-16T08:43:09.241Z,32.45
2017-10-16T08:44:19.634Z,31.37
2017-10-16T08:45:28.724Z,31.29
2017-10-16T08:46:37.935Z,31.58
2017-10-16T08:47:48.338Z,31.87
2017-10-16T08:48:58.526Z,31.29
2017-10-16T08:50:07.637Z,30.91
2017-10-16T08:51:16.767Z,30.52
2017-10-16T08:52:27.270Z,31.01
2017-10-16T08:53:36.797Z,30.22
2017-10-16T08:54:45.911Z,30.53
2017-10-16T08:55:54.689Z,30.73
2017-10-16T08:57:04.875Z,29.64
2017-10-16T08:58:14.424Z,30.04
2017-10-16T08:59:23.523Z,30.04
2017-10-16T09:00:33.091Z,29.94
2017-10-16T09:01:42.531Z,29.55
2017-10-16T09:02:52.802Z,29.55
2017-10-16T09:04:02.337Z,29.76
2017-10-16T09:05:11.110Z,29.58
2017-10-16T09:06:20.320Z,29.17
2017-10-16T09:07:29.525Z,29.66
2017-10-16T09:08:38.717Z,28.99
2017-10-16T09:09:49.241Z,29.19
2017-10-16T09:11:00.099Z,28.59
2017-10-16T09:12:09.542Z,28.59
2017-10-16T09:13:18.867Z,28.69
2017-10-16T09:14:29.610Z,28.78
2017-10-16T09:15:40.126Z,28.77
2017-10-16T09:16:50.212Z,28.86
2017-10-16T09:17:58.991Z,28.86
2017-10-16T09:19:08.601Z,28.96
2017-10-16T09:20:19.166Z,28.97
2017-10-16T09:21:27.939Z,29.25
2017-10-16T09:22:38.481Z,28.58
2017-10-16T09:23:48.661Z,28.57
2017-10-16T09:24:57.465Z,28.67
2017-10-16T09:26:06.996Z,28.37
2017-10-16T09:27:16.431Z,28.57
2017-10-16T09:28:25.563Z,28.68
2017-10-16T09:29:35.039Z,28.49
2017-10-16T09:30:44.567Z,28.78
2017-10-16T09:31:55.144Z,28.78
2017-10-16T09:33:05.713Z,28.49
2017-10-16T09:34:16.267Z,28.97
2017-10-16T09:35:26.459Z,29.07
2017-10-16T09:36:36.973Z,29.55
2017-10-16T09:37:46.112Z,29.44
2017-10-16T09:38:54.902Z,29.82
2017-10-16T09:40:05.735Z,30.21
2017-10-16T09:41:15.065Z,30.3
2017-10-16T09:42:24.273Z,30.68
2017-10-16T09:43:33.821Z,31.06
2017-10-16T09:44:43.030Z,31.24
2017-10-16T09:45:53.568Z,31.42
2017-10-16T09:47:04.098Z,31.52
2017-10-16T09:48:15.351Z,31.91
2017-10-16T09:49:24.146Z,32.01
2017-10-16T09:50:35.960Z,31.91
2017-10-16T09:51:46.049Z,29.87
2017-10-16T09:52:55.599Z,30.65
2017-10-16T09:54:04.701Z,30.26
2017-10-16T09:55:13.821Z,30.55
2017-10-16T09:56:22.606Z,30.46
2017-10-16T09:57:34.432Z,29.87
2017-10-16T09:58:44.034Z,29.69
2017-10-16T09:59:52.913Z,29.59
2017-10-16T10:01:04.450Z,29
2017-10-16T10:02:14.935Z,29.8
2017-10-16T10:03:26.429Z,29.41
2017-10-16T10:04:35.542Z,29.11
2017-10-16T10:05:44.658Z,29.11
2017-10-16T10:06:54.199Z,29.21
2017-10-16T10:08:04.620Z,29.5
2017-10-16T10:09:15.176Z,28.82
2017-10-16T10:10:26.969Z,28.82
2017-10-16T10:11:37.193Z,28.72
2017-10-16T10:12:46.310Z,28.23
2017-10-16T10:13:56.173Z,28.63
2017-10-16T10:15:06.373Z,29.11
2017-10-16T10:16:15.491Z,28.92
2017-10-16T10:17:24.625Z,28.74
2017-10-16T10:18:35.301Z,28.44
2017-10-16T10:19:44.848Z,28.44
2017-10-16T10:20:55.698Z,28.45
2017-10-16T10:22:04.798Z,28.55
2017-10-16T10:23:15.316Z,27.98
2017-10-16T10:24:24.414Z,27.98
2017-10-16T10:25:35.304Z,27.98
2017-10-16T10:26:44.617Z,26.91
2017-10-16T10:27:53.475Z,26.81
2017-10-16T10:29:02.604Z,26.41
2017-10-16T10:30:11.831Z,26.51
2017-10-16T10:31:21.604Z,26.59
2017-10-16T10:32:30.733Z,26.69
2017-10-16T10:33:42.221Z,26.51
2017-10-16T10:34:51.346Z,26.7
2017-10-16T10:36:00.968Z,26.41
2017-10-16T10:37:10.414Z,27.18
2017-10-16T10:38:20.297Z,27.37
2017-10-16T10:39:29.064Z,26.89
2017-10-16T10:40:39.854Z,26.79
2017-10-16T10:41:48.989Z,26.69
2017-10-16T10:42:57.763Z,26.78
2017-10-16T10:44:07.863Z,27.07
2017-10-16T10:45:16.634Z,27.45
2017-10-16T10:46:28.478Z,27.64
2017-10-16T10:47:37.607Z,27.94
2017-10-16T10:48:47.777Z,28.31
2017-10-16T10:49:56.548Z,28.01
2017-10-16T10:51:06.656Z,29.66
2017-10-16T10:52:17.566Z,29.64
2017-10-16T10:53:27.975Z,30.51
2017-10-16T10:54:39.697Z,30.61
2017-10-16T10:55:49.862Z,30.9
2017-10-16T10:56:59.002Z,31
2017-10-16T10:58:08.103Z,31.29
2017-10-16T10:59:17.249Z,31.68
2017-10-16T11:00:26.689Z,31.87
2017-10-16T11:01:36.963Z,32.43
2017-10-16T11:02:45.748Z,32.53
2017-10-16T11:03:54.535Z,32.53
2017-10-16T11:05:06.384Z,33.3
2017-10-16T11:06:16.886Z,32.81
2017-10-16T11:07:26.098Z,33.67
2017-10-16T11:08:36.648Z,33.67
2017-10-16T11:09:46.906Z,33.85
2017-10-16T11:10:58.407Z,34.61
2017-10-16T11:12:07.698Z,34.52
2017-10-16T11:13:16.513Z,34.81
2017-10-16T11:14:25.977Z,35
2017-10-16T11:15:35.205Z,35.18
2017-10-16T11:16:44.374Z,35.47
2017-10-16T11:17:53.240Z,35.77
2017-10-16T11:19:02.023Z,35.86
2017-10-16T11:20:12.560Z,35.77
2017-10-16T11:21:24.418Z,35.86
2017-10-16T11:22:33.951Z,35.98
2017-10-16T11:23:45.152Z,36.35
2017-10-16T11:24:55.039Z,36.45
2017-10-16T11:26:04.216Z,36.74
2017-10-16T11:27:13.006Z,36.63
2017-10-16T11:28:22.109Z,36.63
2017-10-16T11:29:32.625Z,37.02
2017-10-16T11:30:43.134Z,36.92
2017-10-16T11:31:53.337Z,37.19
2017-10-16T11:33:02.459Z,37.68
2017-10-16T11:34:11.921Z,37.77
2017-10-16T11:35:23.358Z,37.87
2017-10-16T11:36:32.509Z,37.89
2017-10-16T11:37:43.081Z,37.7
2017-10-16T11:38:52.935Z,37.62
2017-10-16T11:40:02.282Z,37.52
2017-10-16T11:41:11.060Z,37.04
2017-10-16T11:42:20.529Z,37.15
2017-10-16T11:43:30.720Z,37.15
2017-10-16T11:44:40.295Z,37.15
2017-10-16T11:45:50.506Z,37.05
2017-10-16T11:47:00.039Z,37.45
2017-10-16T11:48:09.336Z,37.35
2017-10-16T11:49:19.524Z,37.15
2017-10-16T11:50:28.298Z,37.07
2017-10-16T11:51:37.428Z,36.78
2017-10-16T11:52:47.858Z,36.49
2017-10-16T11:53:57.071Z,36.39
2017-10-16T11:55:05.979Z,36.39
2017-10-16T11:56:15.594Z,36.58
2017-10-16T11:57:24.440Z,36.68
2017-10-16T11:58:34.633Z,36.78
2017-10-16T11:59:44.192Z,36.78
2017-10-16T12:00:53.624Z,36.6
2017-10-16T12:02:02.403Z,36.7
2017-10-16T12:03:11.190Z,36.52
2017-10-16T12:04:21.593Z,36.04
2017-10-16T12:05:30.688Z,35.55
2017-10-16T12:06:40.896Z,35.25
2017-10-16T12:07:50.455Z,34.96
2017-10-16T12:09:01.172Z,35.35
2017-10-16T12:10:10.408Z,35.35
2017-10-16T12:11:19.510Z,35.06
2017-10-16T12:12:28.671Z,35.25
2017-10-16T12:13:39.554Z,34.86
2017-10-16T12:14:48.980Z,35.25
2017-10-16T12:15:58.540Z,35.06
2017-10-16T12:17:07.383Z,35.06
2017-10-16T12:18:17.888Z,34.67
2017-10-16T12:19:26.982Z,34.67
2017-10-16T12:20:37.405Z,34.57
2017-10-16T12:21:47.922Z,34.78
2017-10-16T12:22:57.150Z,34.78
2017-10-16T12:24:06.596Z,34.58
2017-10-16T12:25:17.140Z,34.19
2017-10-16T12:26:27.264Z,33.62
2017-10-16T12:27:37.200Z,33.53
2017-10-16T12:28:47.121Z,33.23
2017-10-16T12:29:58.939Z,33.23
2017-10-16T12:31:09.571Z,33.33
2017-10-16T12:32:18.721Z,33.23
2017-10-16T12:33:29.389Z,33.04
2017-10-16T12:34:40.253Z,32.45
2017-10-16T12:35:49.043Z,33.12
2017-10-16T12:36:58.252Z,33.22
2017-10-16T12:38:07.028Z,33.33
2017-10-16T12:39:19.230Z,33.23
2017-10-16T12:40:29.927Z,33.33
2017-10-16T12:41:40.781Z,33.23
2017-10-16T12:42:49.895Z,32.75
2017-10-16T12:44:01.073Z,33.23
2017-10-16T12:45:10.207Z,33.02
2017-10-16T12:46:20.405Z,33.22
2017-10-16T12:47:29.523Z,33.41
2017-10-16T12:48:39.074Z,33.61
2017-10-16T12:49:47.875Z,33.9
2017-10-16T12:50:58.827Z,34.09
2017-10-16T12:52:09.681Z,34.08
2017-10-16T12:53:18.882Z,34.08
2017-10-16T12:54:27.994Z,34.08
2017-10-16T12:55:37.541Z,34.57
2017-10-16T12:56:46.382Z,34.77
2017-10-16T12:57:55.283Z,35.33
2017-10-16T12:59:04.733Z,35.53
2017-10-16T13:00:13.637Z,35.53
2017-10-16T13:01:23.169Z,35.53
2017-10-16T13:02:33.686Z,36.1
2017-10-16T13:03:43.897Z,35.9
2017-10-16T13:04:53.038Z,36.1
2017-10-16T13:06:01.914Z,36
2017-10-16T13:07:12.665Z,36.68
2017-10-16T13:08:22.567Z,36.68
2017-10-16T13:09:33.538Z,36.88
2017-10-16T13:10:42.980Z,36.96
2017-10-16T13:11:52.510Z,37.05
2017-10-16T13:13:03.987Z,37.25
2017-10-16T13:14:14.185Z,37.71
2017-10-16T13:15:23.417Z,37.62
2017-10-16T13:16:34.275Z,38.1
2017-10-16T13:17:43.037Z,38.4
2017-10-16T13:18:53.127Z,38.77
2017-10-16T13:20:04.534Z,38.96
2017-10-16T13:21:13.746Z,39.26
2017-10-16T13:22:23.544Z,39.45
2017-10-16T13:23:33.345Z,39.16
2017-10-16T13:24:42.128Z,39.62
2017-10-16T13:25:51.281Z,40.01
2017-10-16T13:27:02.454Z,39.62
2017-10-16T13:28:11.593Z,39.82
2017-10-16T13:29:21.153Z,40
2017-10-16T13:30:30.762Z,40.09
2017-10-16T13:31:39.561Z,40.78
2017-10-16T13:32:49.743Z,40.85
2017-10-16T13:34:00.158Z,40.85
2017-10-16T13:35:09.678Z,41.24
2017-10-16T13:36:18.798Z,41.24
2017-10-16T13:37:27.956Z,41.44
2017-10-16T13:38:38.468Z,41.93
2017-10-16T13:39:49.221Z,42.02
2017-10-16T13:41:01.397Z,41.71
2017-10-16T13:42:12.893Z,41.42
2017-10-16T13:43:22.329Z,41.42
2017-10-16T13:44:32.464Z,41.9
2017-10-16T13:45:42.347Z,41.8
2017-10-16T13:46:52.875Z,42
2017-10-16T13:48:03.070Z,41.8
2017-10-16T13:49:14.570Z,42.18
2017-10-16T13:50:26.384Z,42.18
2017-10-16T13:51:36.191Z,42.46
2017-10-16T13:52:45.324Z,42.76
2017-10-16T13:53:54.166Z,43.24
2017-10-16T13:55:04.324Z,42.76
2017-10-16T13:56:13.466Z,43.34
2017-10-16T13:57:25.637Z,43.34
2017-10-16T13:58:36.113Z,43.22
2017-10-16T13:59:47.961Z,43.51
2017-10-16T14:00:57.489Z,44.38
2017-10-16T14:02:06.958Z,43.41
2017-10-16T14:03:18.161Z,43.41
2017-10-16T14:04:28.115Z,43.61
2017-10-16T14:05:37.919Z,43.2
2017-10-16T14:06:47.358Z,43.3
2017-10-16T14:07:57.922Z,43.12
2017-10-16T14:09:07.374Z,43.2
2017-10-16T14:10:16.605Z,43.59
2017-10-16T14:11:26.813Z,43.59
2017-10-16T14:12:36.023Z,43.68
2017-10-16T14:13:45.144Z,43.68
2017-10-16T14:14:55.242Z,43.88
2017-10-16T14:16:06.231Z,43.49
2017-10-16T14:17:16.760Z,43.76
2017-10-16T14:18:25.560Z,43.95
2017-10-16T14:19:36.384Z,44.17
2017-10-16T14:20:45.168Z,44.17
2017-10-16T14:21:55.707Z,44.15
2017-10-16T14:23:05.824Z,44.15
2017-10-16T14:24:18.006Z,44.73
2017-10-16T14:25:27.186Z,44.83
2017-10-16T14:26:36.333Z,44.83
2017-10-16T14:27:45.453Z,44.73
2017-10-16T14:28:54.710Z,45.12
2017-10-16T14:30:04.907Z,45.7
2017-10-16T14:31:14.866Z,45.8
2017-10-16T14:32:25.059Z,45.41
2017-10-16T14:33:35.140Z,45.78
2017-10-16T14:34:44.607Z,45.87
2017-10-16T14:35:55.176Z,46.26
2017-10-16T14:37:04.603Z,46.26
2017-10-16T14:38:15.132Z,46.84
2017-10-16T14:39:24.818Z,46.55
2017-10-16T14:40:35.354Z,46.55
2017-10-16T14:41:44.580Z,46.55
2017-10-16T14:42:55.097Z,46.36
2017-10-16T14:44:05.970Z,46.75
2017-10-16T14:45:17.829Z,46.94
2017-10-16T14:46:27.065Z,47.13
2017-10-16T14:47:37.589Z,47.02
2017-10-16T14:48:49.436Z,46.84
2017-10-16T14:50:01.287Z,47.13
2017-10-16T14:51:11.710Z,46.92
2017-10-16T14:52:20.851Z,47.2
2017-10-16T14:53:30.744Z,47.4
2017-10-16T14:54:40.842Z,47.4
2017-10-16T14:55:50.310Z,47.3
2017-10-16T14:57:01.924Z,47.3
2017-10-16T14:58:12.465Z,47.79
2017-10-16T14:59:23.962Z,47.4
2017-10-16T15:00:34.405Z,47.5
2017-10-16T15:01:43.616Z,47.4
2017-10-16T15:02:52.860Z,47.86
2017-10-16T15:04:03.392Z,47.67
2017-10-16T15:05:12.507Z,48.15
2017-10-16T15:06:22.941Z,47.96
2017-10-16T15:07:33.595Z,48.06